sensor_id;sensor_type;location;lat;lon;timestamp;P1;durP1;ratioP1;P2;durP2;ratioP2
77864;SDS011;67061;48.524;9.040;2023-03-01T00:00:54;15.40;;;9.43;;
77864;SDS011;67061;48.524;9.040;2023-03-01T00:03:27;15.73;;;8.68;;
77864;SDS011;67061;48.524;9.040;2023-03-01T00:05:54;15.75;;;9.10;;
77864;SDS011;67061;48.524;9.040;2023-03-01T00:08:21;16.00;;;7.50;;
77864;SDS011;67061;48.524;9.040;2023-03-01T00:10:49;17.00;;;9.27;;
77864;SDS011;67061;48.524;9.040;2023-03-01T00:13:26;17.05;;;9.30;;
77864;SDS011;67061;48.524;9.040;2023-03-01T00:15:53;15.68;;;7.25;;
77864;SDS011;67061;48.524;9.040;2023-03-01T00:18:20;16.55;;;9.52;;
77864;SDS011;67061;48.524;9.040;2023-03-01T00:20:49;16.00;;;10.27;;
77864;SDS011;67061;48.524;9.040;2023-03-01T00:23:17;16.20;;;8.05;;
77864;SDS011;67061;48.524;9.040;2023-03-01T00:25:44;17.70;;;9.07;;
77864;SDS011;67061;48.524;9.040;2023-03-01T00:28:12;15.82;;;7.45;;
77864;SDS011;67061;48.524;9.040;2023-03-01T00:30:39;14.40;;;7.05;;
77864;SDS011;67061;48.524;9.040;2023-03-01T00:33:06;15.32;;;7.07;;
77864;SDS011;67061;48.524;9.040;2023-03-01T00:35:33;15.35;;;8.05;;
77864;SDS011;67061;48.524;9.040;2023-03-01T00:38:00;16.48;;;8.02;;
77864;SDS011;67061;48.524;9.040;2023-03-01T00:40:28;18.60;;;7.32;;
77864;SDS011;67061;48.524;9.040;2023-03-01T00:42:58;16.85;;;7.40;;
77864;SDS011;67061;48.524;9.040;2023-03-01T00:45:26;15.40;;;8.30;;
77864;SDS011;67061;48.524;9.040;2023-03-01T00:47:54;15.77;;;7.95;;
77864;SDS011;67061;48.524;9.040;2023-03-01T00:50:21;19.00;;;7.60;;
77864;SDS011;67061;48.524;9.040;2023-03-01T00:52:51;17.30;;;9.50;;
77864;SDS011;67061;48.524;9.040;2023-03-01T00:55:19;16.85;;;9.60;;
77864;SDS011;67061;48.524;9.040;2023-03-01T00:57:46;15.35;;;7.70;;
77864;SDS011;67061;48.524;9.040;2023-03-01T01:00:13;18.23;;;7.45;;
77864;SDS011;67061;48.524;9.040;2023-03-01T01:02:42;15.07;;;8.75;;
77864;SDS011;67061;48.524;9.040;2023-03-01T01:05:09;21.92;;;9.32;;
77864;SDS011;67061;48.524;9.040;2023-03-01T01:07:36;15.80;;;7.65;;
77864;SDS011;67061;48.524;9.040;2023-03-01T01:10:03;17.60;;;7.90;;
77864;SDS011;67061;48.524;9.040;2023-03-01T01:12:32;15.90;;;9.30;;
77864;SDS011;67061;48.524;9.040;2023-03-01T01:14:59;15.20;;;9.27;;
77864;SDS011;67061;48.524;9.040;2023-03-01T01:17:26;14.02;;;7.20;;
77864;SDS011;67061;48.524;9.040;2023-03-01T01:19:54;15.15;;;8.55;;
77864;SDS011;67061;48.524;9.040;2023-03-01T01:22:21;19.10;;;9.18;;
77864;SDS011;67061;48.524;9.040;2023-03-01T01:24:48;15.57;;;9.15;;
77864;SDS011;67061;48.524;9.040;2023-03-01T01:27:15;12.75;;;7.88;;
77864;SDS011;67061;48.524;9.040;2023-03-01T01:29:42;15.18;;;8.63;;
77864;SDS011;67061;48.524;9.040;2023-03-01T01:32:09;15.70;;;8.48;;
77864;SDS011;67061;48.524;9.040;2023-03-01T01:34:38;17.05;;;8.55;;
77864;SDS011;67061;48.524;9.040;2023-03-01T01:37:06;15.82;;;8.45;;
77864;SDS011;67061;48.524;9.040;2023-03-01T01:39:33;16.65;;;8.43;;
77864;SDS011;67061;48.524;9.040;2023-03-01T01:42:01;15.80;;;7.68;;
77864;SDS011;67061;48.524;9.040;2023-03-01T01:44:28;15.02;;;9.15;;
77864;SDS011;67061;48.524;9.040;2023-03-01T01:46:56;18.27;;;9.35;;
77864;SDS011;67061;48.524;9.040;2023-03-01T01:49:27;13.88;;;6.55;;
77864;SDS011;67061;48.524;9.040;2023-03-01T01:52:00;18.08;;;9.85;;
77864;SDS011;67061;48.524;9.040;2023-03-01T01:54:39;14.90;;;7.97;;
77864;SDS011;67061;48.524;9.040;2023-03-01T01:57:11;14.95;;;7.53;;
77864;SDS011;67061;48.524;9.040;2023-03-01T01:59:42;14.70;;;7.47;;
77864;SDS011;67061;48.524;9.040;2023-03-01T02:02:12;17.13;;;9.93;;
77864;SDS011;67061;48.524;9.040;2023-03-01T02:04:40;14.48;;;7.20;;
77864;SDS011;67061;48.524;9.040;2023-03-01T02:07:09;18.88;;;7.40;;
77864;SDS011;67061;48.524;9.040;2023-03-01T02:09:43;16.42;;;9.13;;
77864;SDS011;67061;48.524;9.040;2023-03-01T02:12:12;15.27;;;7.32;;
77864;SDS011;67061;48.524;9.040;2023-03-01T02:14:40;17.10;;;7.95;;
77864;SDS011;67061;48.524;9.040;2023-03-01T02:17:07;13.68;;;7.15;;
77864;SDS011;67061;48.524;9.040;2023-03-01T02:19:39;18.35;;;8.13;;
77864;SDS011;67061;48.524;9.040;2023-03-01T02:22:15;17.08;;;8.85;;
77864;SDS011;67061;48.524;9.040;2023-03-01T02:24:52;14.40;;;8.95;;
77864;SDS011;67061;48.524;9.040;2023-03-01T02:27:30;16.80;;;9.57;;
77864;SDS011;67061;48.524;9.040;2023-03-01T02:30:06;16.67;;;7.80;;
77864;SDS011;67061;48.524;9.040;2023-03-01T02:32:37;16.00;;;8.00;;
77864;SDS011;67061;48.524;9.040;2023-03-01T02:35:07;15.55;;;6.93;;
77864;SDS011;67061;48.524;9.040;2023-03-01T02:37:36;17.25;;;9.93;;
77864;SDS011;67061;48.524;9.040;2023-03-01T02:40:05;15.55;;;8.60;;
77864;SDS011;67061;48.524;9.040;2023-03-01T02:42:38;16.95;;;9.48;;
77864;SDS011;67061;48.524;9.040;2023-03-01T02:45:13;14.70;;;7.75;;
77864;SDS011;67061;48.524;9.040;2023-03-01T02:47:40;16.83;;;8.98;;
77864;SDS011;67061;48.524;9.040;2023-03-01T02:50:15;17.20;;;7.88;;
77864;SDS011;67061;48.524;9.040;2023-03-01T02:52:53;16.88;;;8.15;;
77864;SDS011;67061;48.524;9.040;2023-03-01T02:55:24;15.80;;;7.88;;
77864;SDS011;67061;48.524;9.040;2023-03-01T02:57:51;18.98;;;10.10;;
77864;SDS011;67061;48.524;9.040;2023-03-01T03:00:20;15.65;;;8.95;;
77864;SDS011;67061;48.524;9.040;2023-03-01T03:02:51;19.75;;;9.50;;
77864;SDS011;67061;48.524;9.040;2023-03-01T03:05:22;19.70;;;11.00;;
77864;SDS011;67061;48.524;9.040;2023-03-01T03:07:50;19.58;;;10.32;;
77864;SDS011;67061;48.524;9.040;2023-03-01T03:10:18;18.85;;;9.02;;
77864;SDS011;67061;48.524;9.040;2023-03-01T03:12:48;17.75;;;8.32;;
77864;SDS011;67061;48.524;9.040;2023-03-01T03:15:16;15.88;;;8.95;;
77864;SDS011;67061;48.524;9.040;2023-03-01T03:17:46;18.08;;;9.02;;
77864;SDS011;67061;48.524;9.040;2023-03-01T03:20:15;19.25;;;9.35;;
77864;SDS011;67061;48.524;9.040;2023-03-01T03:22:45;16.02;;;8.13;;
77864;SDS011;67061;48.524;9.040;2023-03-01T03:25:13;20.00;;;10.93;;
77864;SDS011;67061;48.524;9.040;2023-03-01T03:27:41;17.70;;;8.95;;
77864;SDS011;67061;48.524;9.040;2023-03-01T03:30:11;19.40;;;10.95;;
77864;SDS011;67061;48.524;9.040;2023-03-01T03:32:40;17.67;;;10.43;;
77864;SDS011;67061;48.524;9.040;2023-03-01T03:35:19;20.70;;;11.25;;
77864;SDS011;67061;48.524;9.040;2023-03-01T03:37:47;18.33;;;10.43;;
77864;SDS011;67061;48.524;9.040;2023-03-01T03:40:32;18.88;;;8.77;;
77864;SDS011;67061;48.524;9.040;2023-03-01T03:43:01;18.10;;;11.10;;
77864;SDS011;67061;48.524;9.040;2023-03-01T03:45:28;18.45;;;8.75;;
77864;SDS011;67061;48.524;9.040;2023-03-01T03:47:58;22.35;;;11.30;;
77864;SDS011;67061;48.524;9.040;2023-03-01T03:50:26;17.92;;;8.65;;
77864;SDS011;67061;48.524;9.040;2023-03-01T03:52:54;19.88;;;9.93;;
77864;SDS011;67061;48.524;9.040;2023-03-01T03:55:21;16.33;;;7.95;;
77864;SDS011;67061;48.524;9.040;2023-03-01T03:57:48;16.23;;;8.85;;
77864;SDS011;67061;48.524;9.040;2023-03-01T04:00:18;18.35;;;8.68;;
77864;SDS011;67061;48.524;9.040;2023-03-01T04:02:49;21.23;;;11.98;;
77864;SDS011;67061;48.524;9.040;2023-03-01T04:05:17;14.50;;;8.30;;
77864;SDS011;67061;48.524;9.040;2023-03-01T04:07:46;16.85;;;8.70;;
77864;SDS011;67061;48.524;9.040;2023-03-01T04:10:13;15.27;;;8.48;;
77864;SDS011;67061;48.524;9.040;2023-03-01T04:12:42;18.55;;;9.45;;
77864;SDS011;67061;48.524;9.040;2023-03-01T04:15:10;18.75;;;9.05;;
77864;SDS011;67061;48.524;9.040;2023-03-01T04:17:41;19.00;;;11.23;;
77864;SDS011;67061;48.524;9.040;2023-03-01T04:20:10;21.10;;;9.48;;
77864;SDS011;67061;48.524;9.040;2023-03-01T04:22:38;19.88;;;9.68;;
77864;SDS011;67061;48.524;9.040;2023-03-01T04:25:08;16.30;;;8.52;;
77864;SDS011;67061;48.524;9.040;2023-03-01T04:27:39;19.70;;;8.88;;
77864;SDS011;67061;48.524;9.040;2023-03-01T04:30:07;18.38;;;8.77;;
77864;SDS011;67061;48.524;9.040;2023-03-01T04:32:35;18.60;;;9.88;;
77864;SDS011;67061;48.524;9.040;2023-03-01T04:35:02;19.30;;;9.60;;
77864;SDS011;67061;48.524;9.040;2023-03-01T04:37:30;20.88;;;9.80;;
77864;SDS011;67061;48.524;9.040;2023-03-01T04:39:57;19.27;;;10.85;;
77864;SDS011;67061;48.524;9.040;2023-03-01T04:42:25;20.42;;;9.88;;
77864;SDS011;67061;48.524;9.040;2023-03-01T04:44:52;19.02;;;9.30;;
77864;SDS011;67061;48.524;9.040;2023-03-01T04:47:19;19.85;;;9.32;;
77864;SDS011;67061;48.524;9.040;2023-03-01T04:49:46;21.63;;;9.77;;
77864;SDS011;67061;48.524;9.040;2023-03-01T04:52:12;20.90;;;10.27;;
77864;SDS011;67061;48.524;9.040;2023-03-01T04:54:39;19.83;;;10.25;;
77864;SDS011;67061;48.524;9.040;2023-03-01T04:57:06;18.83;;;9.45;;
77864;SDS011;67061;48.524;9.040;2023-03-01T04:59:34;19.50;;;9.50;;
77864;SDS011;67061;48.524;9.040;2023-03-01T05:02:02;18.17;;;9.40;;
77864;SDS011;67061;48.524;9.040;2023-03-01T05:04:29;23.40;;;10.82;;
77864;SDS011;67061;48.524;9.040;2023-03-01T05:06:57;22.25;;;10.75;;
77864;SDS011;67061;48.524;9.040;2023-03-01T05:09:24;18.88;;;9.98;;
77864;SDS011;67061;48.524;9.040;2023-03-01T05:11:51;21.98;;;10.18;;
77864;SDS011;67061;48.524;9.040;2023-03-01T05:14:18;19.63;;;10.00;;
77864;SDS011;67061;48.524;9.040;2023-03-01T05:16:46;19.33;;;9.18;;
77864;SDS011;67061;48.524;9.040;2023-03-01T05:19:13;19.73;;;9.68;;
77864;SDS011;67061;48.524;9.040;2023-03-01T05:21:41;19.55;;;10.65;;
77864;SDS011;67061;48.524;9.040;2023-03-01T05:24:22;21.42;;;9.23;;
77864;SDS011;67061;48.524;9.040;2023-03-01T05:27:06;18.92;;;9.73;;
77864;SDS011;67061;48.524;9.040;2023-03-01T05:29:33;18.55;;;9.23;;
77864;SDS011;67061;48.524;9.040;2023-03-01T05:32:02;19.52;;;11.13;;
77864;SDS011;67061;48.524;9.040;2023-03-01T05:34:30;19.70;;;10.95;;
77864;SDS011;67061;48.524;9.040;2023-03-01T05:36:58;22.33;;;10.93;;
77864;SDS011;67061;48.524;9.040;2023-03-01T05:39:26;21.38;;;10.88;;
77864;SDS011;67061;48.524;9.040;2023-03-01T05:41:54;22.52;;;10.98;;
77864;SDS011;67061;48.524;9.040;2023-03-01T05:44:23;21.25;;;10.85;;
77864;SDS011;67061;48.524;9.040;2023-03-01T05:46:50;24.15;;;10.93;;
77864;SDS011;67061;48.524;9.040;2023-03-01T05:49:19;18.90;;;9.70;;
77864;SDS011;67061;48.524;9.040;2023-03-01T05:51:49;20.08;;;9.13;;
77864;SDS011;67061;48.524;9.040;2023-03-01T05:54:18;21.50;;;10.35;;
77864;SDS011;67061;48.524;9.040;2023-03-01T05:56:46;20.20;;;10.70;;
77864;SDS011;67061;48.524;9.040;2023-03-01T05:59:13;23.25;;;10.90;;
77864;SDS011;67061;48.524;9.040;2023-03-01T06:01:41;23.05;;;10.52;;
77864;SDS011;67061;48.524;9.040;2023-03-01T06:04:08;23.48;;;11.05;;
77864;SDS011;67061;48.524;9.040;2023-03-01T06:06:37;21.08;;;10.50;;
77864;SDS011;67061;48.524;9.040;2023-03-01T06:09:04;23.13;;;11.05;;
77864;SDS011;67061;48.524;9.040;2023-03-01T06:11:33;20.05;;;9.98;;
77864;SDS011;67061;48.524;9.040;2023-03-01T06:14:00;22.40;;;10.60;;
77864;SDS011;67061;48.524;9.040;2023-03-01T06:16:27;20.38;;;10.00;;
77864;SDS011;67061;48.524;9.040;2023-03-01T06:18:54;21.92;;;11.52;;
77864;SDS011;67061;48.524;9.040;2023-03-01T06:21:21;20.90;;;9.70;;
77864;SDS011;67061;48.524;9.040;2023-03-01T06:23:49;22.77;;;11.32;;
77864;SDS011;67061;48.524;9.040;2023-03-01T06:26:17;24.55;;;11.70;;
77864;SDS011;67061;48.524;9.040;2023-03-01T06:28:43;21.35;;;10.98;;
77864;SDS011;67061;48.524;9.040;2023-03-01T06:31:11;22.40;;;10.90;;
77864;SDS011;67061;48.524;9.040;2023-03-01T06:33:38;22.25;;;10.35;;
77864;SDS011;67061;48.524;9.040;2023-03-01T06:36:06;24.23;;;12.80;;
77864;SDS011;67061;48.524;9.040;2023-03-01T06:38:35;19.92;;;10.63;;
77864;SDS011;67061;48.524;9.040;2023-03-01T06:41:03;23.33;;;10.82;;
77864;SDS011;67061;48.524;9.040;2023-03-01T06:43:30;24.85;;;13.50;;
77864;SDS011;67061;48.524;9.040;2023-03-01T06:45:57;19.95;;;10.35;;
77864;SDS011;67061;48.524;9.040;2023-03-01T06:48:24;23.95;;;11.27;;
77864;SDS011;67061;48.524;9.040;2023-03-01T06:50:51;23.77;;;10.93;;
77864;SDS011;67061;48.524;9.040;2023-03-01T06:53:18;22.90;;;11.40;;
77864;SDS011;67061;48.524;9.040;2023-03-01T06:55:45;21.75;;;10.70;;
77864;SDS011;67061;48.524;9.040;2023-03-01T06:58:13;22.80;;;11.30;;
77864;SDS011;67061;48.524;9.040;2023-03-01T07:00:40;22.63;;;10.95;;
77864;SDS011;67061;48.524;9.040;2023-03-01T07:03:08;19.65;;;9.55;;
77864;SDS011;67061;48.524;9.040;2023-03-01T07:05:35;26.58;;;13.45;;
77864;SDS011;67061;48.524;9.040;2023-03-01T07:08:02;22.20;;;11.25;;
77864;SDS011;67061;48.524;9.040;2023-03-01T07:10:29;21.92;;;10.75;;
77864;SDS011;67061;48.524;9.040;2023-03-01T07:12:56;20.50;;;10.48;;
77864;SDS011;67061;48.524;9.040;2023-03-01T07:15:25;22.25;;;10.95;;
77864;SDS011;67061;48.524;9.040;2023-03-01T07:17:53;21.77;;;11.98;;
77864;SDS011;67061;48.524;9.040;2023-03-01T07:20:21;24.83;;;11.93;;
77864;SDS011;67061;48.524;9.040;2023-03-01T07:22:50;22.05;;;10.15;;
77864;SDS011;67061;48.524;9.040;2023-03-01T07:25:17;22.38;;;10.30;;
77864;SDS011;67061;48.524;9.040;2023-03-01T07:27:48;20.92;;;11.05;;
77864;SDS011;67061;48.524;9.040;2023-03-01T07:30:16;21.63;;;11.18;;
77864;SDS011;67061;48.524;9.040;2023-03-01T07:32:44;21.00;;;10.02;;
77864;SDS011;67061;48.524;9.040;2023-03-01T07:35:11;21.10;;;12.10;;
77864;SDS011;67061;48.524;9.040;2023-03-01T07:37:39;21.13;;;11.13;;
77864;SDS011;67061;48.524;9.040;2023-03-01T07:40:07;21.73;;;10.55;;
77864;SDS011;67061;48.524;9.040;2023-03-01T07:42:35;22.33;;;11.85;;
77864;SDS011;67061;48.524;9.040;2023-03-01T07:45:02;20.35;;;10.68;;
77864;SDS011;67061;48.524;9.040;2023-03-01T07:47:29;20.95;;;10.68;;
77864;SDS011;67061;48.524;9.040;2023-03-01T07:49:58;19.98;;;10.68;;
77864;SDS011;67061;48.524;9.040;2023-03-01T07:52:26;22.02;;;10.60;;
77864;SDS011;67061;48.524;9.040;2023-03-01T07:54:53;20.65;;;11.07;;
77864;SDS011;67061;48.524;9.040;2023-03-01T07:57:20;19.95;;;10.48;;
77864;SDS011;67061;48.524;9.040;2023-03-01T07:59:47;23.27;;;10.10;;
77864;SDS011;67061;48.524;9.040;2023-03-01T08:02:13;22.33;;;11.18;;
77864;SDS011;67061;48.524;9.040;2023-03-01T08:04:41;22.33;;;11.48;;
77864;SDS011;67061;48.524;9.040;2023-03-01T08:07:09;22.70;;;13.10;;
77864;SDS011;67061;48.524;9.040;2023-03-01T08:09:36;21.42;;;10.60;;
77864;SDS011;67061;48.524;9.040;2023-03-01T08:12:04;22.85;;;11.75;;
77864;SDS011;67061;48.524;9.040;2023-03-01T08:14:31;22.88;;;11.38;;
77864;SDS011;67061;48.524;9.040;2023-03-01T08:16:58;23.38;;;11.35;;
77864;SDS011;67061;48.524;9.040;2023-03-01T08:19:28;23.40;;;11.25;;
77864;SDS011;67061;48.524;9.040;2023-03-01T08:21:55;19.55;;;10.48;;
77864;SDS011;67061;48.524;9.040;2023-03-01T08:24:24;22.08;;;11.18;;
77864;SDS011;67061;48.524;9.040;2023-03-01T08:26:52;25.65;;;12.32;;
77864;SDS011;67061;48.524;9.040;2023-03-01T08:29:19;23.42;;;11.52;;
77864;SDS011;67061;48.524;9.040;2023-03-01T08:31:46;19.65;;;10.43;;
77864;SDS011;67061;48.524;9.040;2023-03-01T08:34:15;22.83;;;11.43;;
77864;SDS011;67061;48.524;9.040;2023-03-01T08:36:44;23.10;;;11.00;;
77864;SDS011;67061;48.524;9.040;2023-03-01T08:39:13;24.08;;;11.68;;
77864;SDS011;67061;48.524;9.040;2023-03-01T08:41:42;23.10;;;12.23;;
77864;SDS011;67061;48.524;9.040;2023-03-01T08:44:09;22.58;;;11.75;;
77864;SDS011;67061;48.524;9.040;2023-03-01T08:46:39;23.55;;;10.73;;
77864;SDS011;67061;48.524;9.040;2023-03-01T08:49:07;21.13;;;10.80;;
77864;SDS011;67061;48.524;9.040;2023-03-01T08:51:35;25.08;;;11.70;;
77864;SDS011;67061;48.524;9.040;2023-03-01T08:54:03;23.15;;;13.23;;
77864;SDS011;67061;48.524;9.040;2023-03-01T08:56:30;25.38;;;12.13;;
77864;SDS011;67061;48.524;9.040;2023-03-01T08:58:59;23.23;;;10.80;;
77864;SDS011;67061;48.524;9.040;2023-03-01T09:01:26;23.15;;;11.90;;
77864;SDS011;67061;48.524;9.040;2023-03-01T09:03:53;22.52;;;11.15;;
77864;SDS011;67061;48.524;9.040;2023-03-01T09:06:20;23.48;;;12.48;;
77864;SDS011;67061;48.524;9.040;2023-03-01T09:08:48;23.45;;;13.52;;
77864;SDS011;67061;48.524;9.040;2023-03-01T09:11:17;25.13;;;12.00;;
77864;SDS011;67061;48.524;9.040;2023-03-01T09:13:45;23.95;;;11.82;;
77864;SDS011;67061;48.524;9.040;2023-03-01T09:16:18;22.00;;;12.25;;
77864;SDS011;67061;48.524;9.040;2023-03-01T09:18:48;21.73;;;12.15;;
77864;SDS011;67061;48.524;9.040;2023-03-01T09:21:16;21.45;;;11.35;;
77864;SDS011;67061;48.524;9.040;2023-03-01T09:23:46;23.17;;;11.75;;
77864;SDS011;67061;48.524;9.040;2023-03-01T09:26:15;23.70;;;12.63;;
77864;SDS011;67061;48.524;9.040;2023-03-01T09:28:44;21.70;;;13.63;;
77864;SDS011;67061;48.524;9.040;2023-03-01T09:31:12;22.45;;;11.63;;
77864;SDS011;67061;48.524;9.040;2023-03-01T09:33:41;23.67;;;12.13;;
77864;SDS011;67061;48.524;9.040;2023-03-01T09:36:10;24.38;;;12.10;;
77864;SDS011;67061;48.524;9.040;2023-03-01T09:38:39;24.42;;;11.88;;
77864;SDS011;67061;48.524;9.040;2023-03-01T09:41:09;22.27;;;11.73;;
77864;SDS011;67061;48.524;9.040;2023-03-01T09:43:46;22.70;;;11.73;;
77864;SDS011;67061;48.524;9.040;2023-03-01T09:46:20;23.55;;;12.27;;
77864;SDS011;67061;48.524;9.040;2023-03-01T09:48:50;25.02;;;12.27;;
77864;SDS011;67061;48.524;9.040;2023-03-01T09:51:22;25.42;;;12.25;;
77864;SDS011;67061;48.524;9.040;2023-03-01T09:53:53;24.42;;;11.38;;
77864;SDS011;67061;48.524;9.040;2023-03-01T09:56:24;21.60;;;11.85;;
77864;SDS011;67061;48.524;9.040;2023-03-01T09:58:57;27.33;;;12.50;;
77864;SDS011;67061;48.524;9.040;2023-03-01T10:01:37;23.50;;;11.82;;
77864;SDS011;67061;48.524;9.040;2023-03-01T10:04:22;26.02;;;12.77;;
77864;SDS011;67061;48.524;9.040;2023-03-01T10:06:58;23.83;;;12.50;;
77864;SDS011;67061;48.524;9.040;2023-03-01T10:09:39;22.02;;;12.38;;
77864;SDS011;67061;48.524;9.040;2023-03-01T10:12:09;23.27;;;12.15;;
77864;SDS011;67061;48.524;9.040;2023-03-01T10:14:39;22.40;;;11.55;;
77864;SDS011;67061;48.524;9.040;2023-03-01T10:17:16;22.92;;;11.82;;
77864;SDS011;67061;48.524;9.040;2023-03-01T10:19:52;21.02;;;11.48;;
77864;SDS011;67061;48.524;9.040;2023-03-01T10:22:26;24.17;;;14.45;;
77864;SDS011;67061;48.524;9.040;2023-03-01T10:24:56;23.20;;;11.10;;
77864;SDS011;67061;48.524;9.040;2023-03-01T10:27:26;21.55;;;11.30;;
77864;SDS011;67061;48.524;9.040;2023-03-01T10:30:02;21.77;;;10.95;;
77864;SDS011;67061;48.524;9.040;2023-03-01T10:32:39;24.50;;;12.55;;
77864;SDS011;67061;48.524;9.040;2023-03-01T10:35:15;23.77;;;12.73;;
77864;SDS011;67061;48.524;9.040;2023-03-01T10:37:47;21.58;;;11.43;;
77864;SDS011;67061;48.524;9.040;2023-03-01T10:40:23;23.55;;;12.05;;
77864;SDS011;67061;48.524;9.040;2023-03-01T10:42:50;23.83;;;11.77;;
77864;SDS011;67061;48.524;9.040;2023-03-01T10:45:26;22.50;;;12.27;;
77864;SDS011;67061;48.524;9.040;2023-03-01T10:48:04;20.58;;;11.65;;
77864;SDS011;67061;48.524;9.040;2023-03-01T10:50:36;19.92;;;10.80;;
77864;SDS011;67061;48.524;9.040;2023-03-01T10:53:05;21.00;;;11.20;;
77864;SDS011;67061;48.524;9.040;2023-03-01T10:55:47;21.30;;;11.68;;
77864;SDS011;67061;48.524;9.040;2023-03-01T10:58:22;21.25;;;11.52;;
77864;SDS011;67061;48.524;9.040;2023-03-01T11:00:50;23.08;;;12.50;;
77864;SDS011;67061;48.524;9.040;2023-03-01T11:03:20;23.67;;;12.43;;
77864;SDS011;67061;48.524;9.040;2023-03-01T11:05:50;22.95;;;11.93;;
77864;SDS011;67061;48.524;9.040;2023-03-01T11:08:38;21.25;;;11.38;;
77864;SDS011;67061;48.524;9.040;2023-03-01T11:11:16;24.80;;;12.63;;
77864;SDS011;67061;48.524;9.040;2023-03-01T11:13:56;23.77;;;12.77;;
77864;SDS011;67061;48.524;9.040;2023-03-01T11:16:26;22.42;;;11.60;;
77864;SDS011;67061;48.524;9.040;2023-03-01T11:18:57;23.08;;;12.65;;
77864;SDS011;67061;48.524;9.040;2023-03-01T11:21:40;24.25;;;12.30;;
77864;SDS011;67061;48.524;9.040;2023-03-01T11:24:11;20.65;;;11.88;;
77864;SDS011;67061;48.524;9.040;2023-03-01T11:26:41;22.08;;;12.18;;
77864;SDS011;67061;48.524;9.040;2023-03-01T11:29:13;21.02;;;11.23;;
77864;SDS011;67061;48.524;9.040;2023-03-01T11:31:47;24.05;;;12.70;;
77864;SDS011;67061;48.524;9.040;2023-03-01T11:34:17;24.63;;;11.73;;
77864;SDS011;67061;48.524;9.040;2023-03-01T11:36:51;21.83;;;10.77;;
77864;SDS011;67061;48.524;9.040;2023-03-01T11:39:23;22.58;;;11.15;;
77864;SDS011;67061;48.524;9.040;2023-03-01T11:42:01;16.67;;;9.30;;
77864;SDS011;67061;48.524;9.040;2023-03-01T11:44:35;20.55;;;11.43;;
77864;SDS011;67061;48.524;9.040;2023-03-01T11:52:55;21.15;;;10.55;;
77864;SDS011;67061;48.524;9.040;2023-03-01T11:55:36;19.42;;;10.85;;
77864;SDS011;67061;48.524;9.040;2023-03-01T11:58:19;18.48;;;9.85;;
77864;SDS011;67061;48.524;9.040;2023-03-01T12:01:08;18.13;;;10.02;;
77864;SDS011;67061;48.524;9.040;2023-03-01T12:03:57;16.63;;;9.88;;
77864;SDS011;67061;48.524;9.040;2023-03-01T12:06:42;20.08;;;9.82;;
77864;SDS011;67061;48.524;9.040;2023-03-01T12:09:21;17.30;;;9.27;;
77864;SDS011;67061;48.524;9.040;2023-03-01T12:18:13;16.75;;;9.93;;
77864;SDS011;67061;48.524;9.040;2023-03-01T12:20:50;16.85;;;10.48;;
77864;SDS011;67061;48.524;9.040;2023-03-01T12:26:06;16.90;;;9.40;;
77864;SDS011;67061;48.524;9.040;2023-03-01T12:28:55;18.45;;;10.45;;
77864;SDS011;67061;48.524;9.040;2023-03-01T12:31:49;16.83;;;10.10;;
77864;SDS011;67061;48.524;9.040;2023-03-01T12:34:58;16.23;;;9.77;;
77864;SDS011;67061;48.524;9.040;2023-03-01T12:37:54;16.70;;;10.02;;
77864;SDS011;67061;48.524;9.040;2023-03-01T12:43:31;17.70;;;10.15;;
77864;SDS011;67061;48.524;9.040;2023-03-01T12:46:10;17.00;;;10.15;;
77864;SDS011;67061;48.524;9.040;2023-03-01T12:48:47;18.48;;;10.25;;
77864;SDS011;67061;48.524;9.040;2023-03-01T12:51:24;17.00;;;9.85;;
77864;SDS011;67061;48.524;9.040;2023-03-01T12:53:53;16.75;;;9.88;;
77864;SDS011;67061;48.524;9.040;2023-03-01T12:56:23;18.30;;;10.32;;
77864;SDS011;67061;48.524;9.040;2023-03-01T12:58:57;17.67;;;9.90;;
77864;SDS011;67061;48.524;9.040;2023-03-01T13:04:20;16.80;;;9.70;;
77864;SDS011;67061;48.524;9.040;2023-03-01T13:06:58;17.20;;;9.93;;
77864;SDS011;67061;48.524;9.040;2023-03-01T13:09:48;15.00;;;9.38;;
77864;SDS011;67061;48.524;9.040;2023-03-01T13:12:42;16.00;;;9.27;;
77864;SDS011;67061;48.524;9.040;2023-03-01T13:17:58;18.92;;;9.93;;
77864;SDS011;67061;48.524;9.040;2023-03-01T13:20:28;16.90;;;9.68;;
77864;SDS011;67061;48.524;9.040;2023-03-01T13:23:07;16.33;;;9.55;;
77864;SDS011;67061;48.524;9.040;2023-03-01T13:28:52;15.43;;;10.07;;
77864;SDS011;67061;48.524;9.040;2023-03-01T13:37:21;17.55;;;10.35;;
77864;SDS011;67061;48.524;9.040;2023-03-01T13:39:51;17.27;;;10.77;;
77864;SDS011;67061;48.524;9.040;2023-03-01T13:45:21;16.67;;;10.98;;
77864;SDS011;67061;48.524;9.040;2023-03-01T13:47:59;20.52;;;10.80;;
77864;SDS011;67061;48.524;9.040;2023-03-01T13:50:33;19.83;;;10.65;;
77864;SDS011;67061;48.524;9.040;2023-03-01T13:53:05;17.98;;;10.45;;
77864;SDS011;67061;48.524;9.040;2023-03-01T13:58:05;17.48;;;10.32;;
77864;SDS011;67061;48.524;9.040;2023-03-01T14:00:42;17.42;;;10.73;;
77864;SDS011;67061;48.524;9.040;2023-03-01T14:03:10;18.48;;;12.23;;
77864;SDS011;67061;48.524;9.040;2023-03-01T14:05:40;17.30;;;10.55;;
77864;SDS011;67061;48.524;9.040;2023-03-01T14:08:21;17.15;;;10.18;;
77864;SDS011;67061;48.524;9.040;2023-03-01T14:14:02;16.90;;;9.30;;
77864;SDS011;67061;48.524;9.040;2023-03-01T14:16:51;16.25;;;9.70;;
77864;SDS011;67061;48.524;9.040;2023-03-01T14:19:25;16.35;;;10.27;;
77864;SDS011;67061;48.524;9.040;2023-03-01T14:22:04;15.27;;;9.73;;
77864;SDS011;67061;48.524;9.040;2023-03-01T14:24:39;16.73;;;10.15;;
77864;SDS011;67061;48.524;9.040;2023-03-01T14:27:12;17.58;;;11.05;;
77864;SDS011;67061;48.524;9.040;2023-03-01T14:29:40;19.30;;;10.98;;
77864;SDS011;67061;48.524;9.040;2023-03-01T14:32:11;17.77;;;11.13;;
77864;SDS011;67061;48.524;9.040;2023-03-01T14:34:44;18.80;;;10.82;;
77864;SDS011;67061;48.524;9.040;2023-03-01T14:37:17;18.73;;;10.95;;
77864;SDS011;67061;48.524;9.040;2023-03-01T14:39:46;16.77;;;10.50;;
77864;SDS011;67061;48.524;9.040;2023-03-01T14:42:14;21.13;;;11.23;;
77864;SDS011;67061;48.524;9.040;2023-03-01T14:44:42;16.60;;;10.45;;
77864;SDS011;67061;48.524;9.040;2023-03-01T14:47:12;17.75;;;11.20;;
77864;SDS011;67061;48.524;9.040;2023-03-01T14:49:42;19.85;;;10.77;;
77864;SDS011;67061;48.524;9.040;2023-03-01T14:52:18;19.55;;;10.73;;
77864;SDS011;67061;48.524;9.040;2023-03-01T14:54:48;15.95;;;9.88;;
77864;SDS011;67061;48.524;9.040;2023-03-01T14:57:19;18.20;;;10.63;;
77864;SDS011;67061;48.524;9.040;2023-03-01T14:59:48;18.48;;;10.80;;
77864;SDS011;67061;48.524;9.040;2023-03-01T15:02:19;17.80;;;10.80;;
77864;SDS011;67061;48.524;9.040;2023-03-01T15:04:48;18.23;;;10.20;;
77864;SDS011;67061;48.524;9.040;2023-03-01T15:07:19;17.33;;;10.02;;
77864;SDS011;67061;48.524;9.040;2023-03-01T15:09:46;15.75;;;10.00;;
77864;SDS011;67061;48.524;9.040;2023-03-01T15:12:33;19.23;;;12.27;;
77864;SDS011;67061;48.524;9.040;2023-03-01T15:18:03;14.90;;;8.68;;
77864;SDS011;67061;48.524;9.040;2023-03-01T15:20:32;17.08;;;9.63;;
77864;SDS011;67061;48.524;9.040;2023-03-01T15:23:03;17.65;;;9.93;;
77864;SDS011;67061;48.524;9.040;2023-03-01T15:27:58;18.75;;;9.80;;
77864;SDS011;67061;48.524;9.040;2023-03-01T15:30:27;17.25;;;9.45;;
77864;SDS011;67061;48.524;9.040;2023-03-01T15:36:02;16.73;;;9.07;;